KLOL/LOL METAR and TAF weather

Enter ICAO airport designator
Station Type Date Time Source
KLOL METAR 2019/06/17 03:53 UTC NOAA

KLOL 170353Z AUTO 00000KT 10SM CLR 26/03 A2988 RMK AO2 SLP073 T02560028


Station Type Date Time Source
KLOL Decoded METAR 2019/06/17 03:53 UTC NOAA

LOVELOCK DERBY FIELD, NV, United States (KLOL) 40-04N 118-34W 1189M
Jun 16, 2019 - 11:53 PM EDT / 2019.06.17 0353 UTC
Wind: Calm:0
Visibility: 10 mile(s):0
Sky conditions: clear
Temperature: 78.1 F (25.6 C)
Dew Point: 37.0 F (2.8 C)
Relative Humidity: 22%
Pressure (altimeter): 29.88 in. Hg (1011 hPa)
ob: KLOL 170353Z AUTO 00000KT 10SM CLR 26/03 A2988 RMK AO2 SLP073 T02560028
cycle: 4

Station Type Date Time Source
KLOL TAF 2010/01/05 05:22 UTC NOAA

TAF KLOL 050522Z 0506/0606 00000KT 1/4SM FZFG VV001
FM052000 VRB03KT 3SM BR OVC002
AMD NOT SKED

Example: see airport list